createdAt,value
2018-03-28T00:00:48.658Z,94.84
2018-03-28T00:01:48.649Z,94.55
2018-03-28T00:02:48.734Z,94.94
2018-03-28T00:03:48.634Z,94.65
2018-03-28T00:04:48.562Z,95.33
2018-03-28T00:05:49.056Z,95.33
2018-03-28T00:06:48.584Z,95.57
2018-03-28T00:07:48.576Z,95.28
2018-03-28T00:08:48.483Z,95.28
2018-03-28T00:09:48.446Z,95.97
2018-03-28T00:10:48.405Z,95.97
2018-03-28T00:11:48.417Z,96.15
2018-03-28T00:12:48.405Z,96.84
2018-03-28T00:13:48.524Z,96.55
2018-03-28T00:14:48.432Z,96.94
2018-03-28T00:15:48.296Z,96.15
2018-03-28T00:16:48.279Z,96.55
2018-03-28T00:17:48.270Z,96.55
2018-03-28T00:18:48.259Z,96.11
2018-03-28T00:19:48.363Z,96.69
2018-03-28T00:20:48.716Z,96.94
2018-03-28T00:21:48.170Z,97.28
2018-03-28T00:22:48.174Z,96.89
2018-03-28T00:23:48.177Z,97.47
2018-03-28T00:24:48.708Z,97.37
2018-03-28T00:25:48.108Z,97.56
2018-03-28T00:26:48.063Z,97.37
2018-03-28T00:27:48.011Z,97.66
2018-03-28T00:28:48.000Z,97.96
2018-03-28T00:29:48.159Z,97.37
2018-03-28T00:30:47.980Z,97.76
2018-03-28T00:31:47.960Z,98.05
2018-03-28T00:32:48.261Z,97.61
2018-03-28T00:33:47.894Z,98.15
2018-03-28T00:34:48.225Z,97.61
2018-03-28T00:35:47.839Z,98.10
2018-03-28T00:36:47.836Z,98.39
2018-03-28T00:37:48.321Z,98.39
2018-03-28T00:38:47.756Z,99.07
2018-03-28T00:39:47.833Z,98.78
2018-03-28T00:40:48.338Z,98.88
2018-03-28T00:41:47.701Z,99.02
2018-03-28T00:42:47.648Z,98.88
2018-03-28T00:43:47.643Z,99.07
2018-03-28T00:44:48.314Z,98.58
2018-03-28T00:45:48.145Z,99.07
2018-03-28T00:46:47.558Z,99.07
2018-03-28T00:47:48.074Z,98.97
2018-03-28T00:48:48.181Z,99.07
2018-03-28T00:49:47.595Z,99.17
2018-03-28T00:50:47.457Z,98.73
2018-03-28T00:51:47.465Z,99.17
2018-03-28T00:52:47.416Z,99.70
2018-03-28T00:53:47.941Z,99.46
2018-03-28T00:54:47.352Z,99.41
2018-03-28T00:55:47.435Z,99.80
2018-03-28T00:56:47.924Z,99.60
2018-03-28T00:57:47.291Z,99.60
2018-03-28T00:58:47.416Z,99.90
2018-03-28T00:59:47.818Z,99.32
2018-03-28T01:00:48.007Z,99.51
2018-03-28T01:01:47.228Z,99.80
2018-03-28T01:02:47.292Z,99.99
2018-03-28T01:03:47.979Z,99.99
2018-03-28T01:04:47.181Z,99.99
2018-03-28T01:05:47.300Z,99.99
2018-03-28T01:06:47.209Z,99.99
2018-03-28T01:07:47.183Z,99.99
2018-03-28T01:08:47.139Z,99.99
2018-03-28T01:09:47.552Z,99.99
2018-03-28T01:10:47.469Z,99.99
2018-03-28T01:11:47.088Z,99.99
2018-03-28T01:12:47.089Z,99.99
2018-03-28T01:13:47.566Z,99.99
2018-03-28T01:14:46.920Z,99.99
2018-03-28T01:15:47.677Z,99.99
2018-03-28T01:16:46.793Z,99.99
2018-03-28T01:17:46.793Z,99.99
2018-03-28T01:18:47.199Z,99.99
2018-03-28T01:19:46.786Z,99.99
2018-03-28T01:20:46.859Z,99.99
2018-03-28T01:21:47.240Z,99.99
2018-03-28T01:22:47.264Z,99.99
2018-03-28T01:23:46.705Z,99.99
2018-03-28T01:24:46.614Z,99.99
2018-03-28T01:25:47.278Z,99.99
2018-03-28T01:26:46.558Z,99.99
2018-03-28T01:27:46.583Z,99.99
2018-03-28T01:28:46.616Z,99.99
2018-03-28T01:29:46.547Z,99.99
2018-03-28T01:30:47.012Z,99.99
2018-03-28T01:31:47.066Z,99.99
2018-03-28T01:32:47.382Z,99.99
2018-03-28T01:33:46.983Z,99.99
2018-03-28T01:34:46.936Z,99.99
2018-03-28T01:35:46.894Z,99.99
2018-03-28T01:36:46.871Z,99.99
2018-03-28T01:37:47.048Z,99.99
2018-03-28T01:38:46.350Z,99.99
2018-03-28T01:39:46.858Z,99.99
2018-03-28T01:40:46.290Z,99.99
2018-03-28T01:41:46.335Z,99.99
2018-03-28T01:42:46.982Z,99.99
2018-03-28T01:43:46.231Z,99.99
2018-03-28T01:44:46.966Z,99.99
2018-03-28T01:45:46.233Z,99.99
2018-03-28T01:46:46.652Z,99.99
2018-03-28T01:47:46.821Z,99.99
2018-03-28T01:48:46.093Z,99.99
2018-03-28T01:49:46.025Z,99.99
2018-03-28T01:50:46.520Z,99.99
2018-03-28T01:51:46.015Z,99.99
2018-03-28T01:52:46.745Z,99.99
2018-03-28T01:53:45.918Z,99.99
2018-03-28T01:54:45.910Z,99.99
2018-03-28T01:55:46.502Z,99.99
2018-03-28T01:56:45.823Z,99.99
2018-03-28T01:57:46.550Z,99.99
2018-03-28T01:58:46.397Z,99.99
2018-03-28T01:59:45.779Z,99.99
2018-03-28T02:00:45.766Z,99.99
2018-03-28T02:01:45.731Z,99.99
2018-03-28T02:02:46.362Z,99.99
2018-03-28T02:03:46.056Z,99.99
2018-03-28T02:04:45.720Z,99.99
2018-03-28T02:05:46.266Z,99.99
2018-03-28T02:06:46.293Z,99.99
2018-03-28T02:07:45.589Z,99.99
2018-03-28T02:08:45.659Z,99.99
2018-03-28T02:09:45.497Z,99.99
2018-03-28T02:10:45.956Z,99.99
2018-03-28T02:11:45.984Z,99.99
2018-03-28T02:12:46.025Z,99.99
2018-03-28T02:13:45.409Z,99.99
2018-03-28T02:14:45.462Z,99.99
2018-03-28T02:15:45.843Z,99.99
2018-03-28T02:16:45.837Z,99.99
2018-03-28T02:17:45.781Z,99.99
2018-03-28T02:18:45.766Z,99.99
2018-03-28T02:19:45.955Z,99.99
2018-03-28T02:20:45.721Z,99.99
2018-03-28T02:21:45.807Z,99.99
2018-03-28T02:22:45.737Z,99.99
2018-03-28T02:23:45.125Z,99.99
2018-03-28T02:24:45.734Z,99.99
2018-03-28T02:25:45.589Z,99.99
2018-03-28T02:26:45.664Z,99.99
2018-03-28T02:27:45.625Z,99.99
2018-03-28T02:28:45.736Z,99.99
2018-03-28T02:29:46.075Z,99.99
2018-03-28T02:30:45.251Z,99.99
2018-03-28T02:31:44.918Z,99.99
2018-03-28T02:32:44.914Z,99.99
2018-03-28T02:33:45.404Z,99.99
2018-03-28T02:34:44.978Z,99.99
2018-03-28T02:35:44.838Z,99.99
2018-03-28T02:36:44.794Z,99.99
2018-03-28T02:37:45.331Z,99.99
2018-03-28T02:38:45.351Z,99.99
2018-03-28T02:39:44.794Z,99.99
2018-03-28T02:40:44.698Z,99.99
2018-03-28T02:41:44.721Z,99.99
2018-03-28T02:42:44.689Z,99.99
2018-03-28T02:43:45.176Z,99.99
2018-03-28T02:44:44.615Z,99.99
2018-03-28T02:45:45.181Z,99.99
2018-03-28T02:46:45.089Z,99.99
2018-03-28T02:47:45.166Z,99.99
2018-03-28T02:48:45.143Z,99.99
2018-03-28T02:49:45.048Z,99.99
2018-03-28T02:50:44.957Z,99.99
2018-03-28T02:51:45.169Z,99.99
2018-03-28T02:52:44.409Z,99.99
2018-03-28T02:53:44.995Z,99.99
2018-03-28T02:54:44.989Z,99.99
2018-03-28T02:55:44.922Z,99.99
2018-03-28T02:56:44.869Z,99.99
2018-03-28T02:57:44.361Z,99.99
2018-03-28T02:58:45.146Z,99.99
2018-03-28T02:59:44.991Z,99.99
2018-03-28T03:00:44.213Z,99.99
2018-03-28T03:01:44.672Z,99.99
2018-03-28T03:02:44.703Z,99.99
2018-03-28T03:03:44.650Z,99.99
2018-03-28T03:04:44.651Z,99.99
2018-03-28T03:05:44.055Z,99.99
2018-03-28T03:06:44.012Z,99.99
2018-03-28T03:07:44.633Z,99.99
2018-03-28T03:08:43.977Z,99.99
2018-03-28T03:09:43.921Z,99.99
2018-03-28T03:10:43.923Z,99.99
2018-03-28T03:11:43.932Z,99.99
2018-03-28T03:12:43.928Z,99.99
2018-03-28T03:13:44.371Z,99.99
2018-03-28T03:14:44.230Z,99.99
2018-03-28T03:15:43.777Z,99.99
2018-03-28T03:16:44.306Z,99.99
2018-03-28T03:17:44.472Z,99.99
2018-03-28T03:18:43.807Z,99.99
2018-03-28T03:19:44.316Z,99.99
2018-03-28T03:20:44.202Z,99.99
2018-03-28T03:21:44.203Z,99.99
2018-03-28T03:22:44.132Z,99.99
2018-03-28T03:23:43.696Z,99.99
2018-03-28T03:24:44.113Z,99.99
2018-03-28T03:25:43.564Z,99.99
2018-03-28T03:26:44.029Z,99.99
2018-03-28T03:27:43.477Z,99.99
2018-03-28T03:28:43.475Z,99.99
2018-03-28T03:29:43.510Z,99.99
2018-03-28T03:30:43.827Z,99.99
2018-03-28T03:31:43.371Z,99.99
2018-03-28T03:32:43.968Z,99.99
2018-03-28T03:33:43.840Z,99.99
2018-03-28T03:34:43.867Z,99.99
2018-03-28T03:35:43.365Z,99.99
2018-03-28T03:36:43.741Z,99.99
2018-03-28T03:37:43.709Z,99.99
2018-03-28T03:38:43.720Z,99.99
2018-03-28T03:39:43.139Z,99.99
2018-03-28T03:40:43.218Z,99.99
2018-03-28T03:41:43.653Z,99.99
2018-03-28T03:42:43.629Z,99.99
2018-03-28T03:43:43.594Z,99.99
2018-03-28T03:44:43.008Z,99.99
2018-03-28T03:45:43.076Z,99.99
2018-03-28T03:46:43.675Z,99.99
2018-03-28T03:47:43.434Z,99.99
2018-03-28T03:48:43.453Z,99.99
2018-03-28T03:49:43.393Z,99.99
2018-03-28T03:50:42.925Z,99.99
2018-03-28T03:51:42.940Z,99.99
2018-03-28T03:52:43.252Z,99.99
2018-03-28T03:53:43.368Z,99.99
2018-03-28T03:54:43.263Z,99.99
2018-03-28T03:55:42.732Z,99.99
2018-03-28T03:56:42.730Z,99.99
2018-03-28T03:57:42.765Z,99.99
2018-03-28T03:58:43.167Z,99.99
2018-03-28T03:59:43.130Z,99.99
2018-03-28T04:00:42.561Z,99.99
2018-03-28T04:01:42.561Z,99.99
2018-03-28T04:02:43.163Z,99.16
2018-03-28T04:03:42.917Z,99.99
2018-03-28T04:04:43.033Z,99.70
2018-03-28T04:05:42.438Z,99.99
2018-03-28T04:06:42.937Z,99.99
2018-03-28T04:07:42.909Z,99.16
2018-03-28T04:08:43.049Z,98.97
2018-03-28T04:09:42.868Z,98.78
2018-03-28T04:10:42.318Z,98.68
2018-03-28T04:11:43.109Z,98.78
2018-03-28T04:12:42.238Z,98.78
2018-03-28T04:13:42.757Z,98.78
2018-03-28T04:14:42.721Z,98.68
2018-03-28T04:15:42.188Z,99.16
2018-03-28T04:16:42.143Z,98.78
2018-03-28T04:17:42.692Z,98.97
2018-03-28T04:18:42.737Z,98.58
2018-03-28T04:19:42.061Z,98.20
2018-03-28T04:20:42.572Z,98.10
2018-03-28T04:21:42.008Z,98.88
2018-03-28T04:22:42.716Z,99.65
2018-03-28T04:23:42.049Z,99.65
2018-03-28T04:24:41.940Z,99.16
2018-03-28T04:25:41.894Z,99.36
2018-03-28T04:26:41.870Z,99.36
2018-03-28T04:27:42.374Z,99.55
2018-03-28T04:28:41.895Z,99.46
2018-03-28T04:29:42.384Z,99.16
2018-03-28T04:30:41.798Z,99.16
2018-03-28T04:31:41.764Z,99.74
2018-03-28T04:32:41.696Z,99.94
2018-03-28T04:33:42.583Z,99.79
2018-03-28T04:34:42.742Z,99.99
2018-03-28T04:35:41.631Z,99.99
2018-03-28T04:36:41.617Z,99.99
2018-03-28T04:37:41.592Z,99.99
2018-03-28T04:38:41.547Z,99.99
2018-03-28T04:39:41.835Z,99.99
2018-03-28T04:40:41.495Z,99.99
2018-03-28T04:41:41.476Z,99.99
2018-03-28T04:42:41.451Z,99.99
2018-03-28T04:43:42.012Z,99.99
2018-03-28T04:44:41.394Z,99.99
2018-03-28T04:45:42.009Z,99.99
2018-03-28T04:46:41.352Z,99.99
2018-03-28T04:47:41.849Z,99.99
2018-03-28T04:48:41.302Z,99.99
2018-03-28T04:49:41.320Z,99.99
2018-03-28T04:50:41.333Z,99.99
2018-03-28T04:51:41.203Z,99.99
2018-03-28T04:52:41.172Z,99.99
2018-03-28T04:53:41.145Z,99.99
2018-03-28T04:54:41.159Z,99.99
2018-03-28T04:55:41.196Z,99.99
2018-03-28T04:56:41.080Z,99.99
2018-03-28T04:57:41.034Z,99.99
2018-03-28T04:58:41.013Z,99.99
2018-03-28T04:59:41.008Z,99.99
2018-03-28T05:00:41.568Z,99.99
2018-03-28T05:01:41.589Z,99.99
2018-03-28T05:02:40.898Z,99.99
2018-03-28T05:03:40.868Z,99.99
2018-03-28T05:04:40.882Z,99.99
2018-03-28T05:05:40.830Z,99.99
2018-03-28T05:06:40.906Z,99.99
2018-03-28T05:07:40.773Z,99.99
2018-03-28T05:08:40.753Z,99.99
2018-03-28T05:09:40.751Z,99.99
2018-03-28T05:10:40.720Z,99.99
2018-03-28T05:11:40.760Z,99.99
2018-03-28T05:12:40.639Z,99.99
2018-03-28T05:13:40.609Z,99.99
2018-03-28T05:14:40.641Z,99.99
2018-03-28T05:15:40.600Z,99.99
2018-03-28T05:16:40.635Z,99.99
2018-03-28T05:17:40.506Z,99.69
2018-03-28T05:18:40.705Z,98.73
2018-03-28T05:19:40.484Z,99.11
2018-03-28T05:20:40.489Z,99.11
2018-03-28T05:21:40.390Z,97.28
2018-03-28T05:22:40.506Z,97.81
2018-03-28T05:23:40.343Z,95.29
2018-03-28T05:24:40.346Z,97.04
2018-03-28T05:25:40.301Z,94.04
2018-03-28T05:26:40.264Z,95.39
2018-03-28T05:27:40.313Z,92.78
2018-03-28T05:28:40.209Z,93.07
2018-03-28T05:29:40.192Z,91.42
2018-03-28T05:30:40.158Z,91.18
2018-03-28T05:31:40.123Z,92.93
2018-03-28T05:32:40.123Z,89.83
2018-03-28T05:33:40.180Z,88.32
2018-03-28T05:34:40.052Z,89.00
2018-03-28T05:35:40.073Z,88.81
2018-03-28T05:36:40.207Z,89.68
2018-03-28T05:37:40.185Z,88.18
2018-03-28T05:38:40.112Z,88.95
2018-03-28T05:39:40.271Z,88.95
2018-03-28T05:40:40.100Z,90.02
2018-03-28T05:41:39.882Z,88.95
2018-03-28T05:42:39.932Z,88.95
2018-03-28T05:43:39.985Z,88.18
2018-03-28T05:44:40.161Z,89.83
2018-03-28T05:45:39.805Z,89.15
2018-03-28T05:46:39.712Z,89.15
2018-03-28T05:47:39.687Z,89.92
2018-03-28T05:48:39.677Z,90.60
2018-03-28T05:49:39.757Z,89.53
2018-03-28T05:50:39.608Z,89.73
2018-03-28T05:51:39.625Z,90.50
2018-03-28T05:52:39.567Z,90.41
2018-03-28T05:53:39.538Z,90.50
2018-03-28T05:54:39.590Z,90.36
2018-03-28T05:55:39.485Z,92.78
2018-03-28T05:56:39.456Z,90.17
2018-03-28T05:57:39.458Z,89.88
2018-03-28T05:58:39.466Z,90.17
2018-03-28T05:59:39.361Z,90.46
2018-03-28T06:00:39.437Z,90.26
2018-03-28T06:01:39.306Z,90.02
2018-03-28T06:02:39.294Z,89.88
2018-03-28T06:03:39.260Z,90.46
2018-03-28T06:04:39.236Z,89.78
2018-03-28T06:05:39.331Z,90.26
2018-03-28T06:06:39.179Z,90.65
2018-03-28T06:07:39.142Z,90.75
2018-03-28T06:08:39.139Z,88.81
2018-03-28T06:09:39.137Z,89.01
2018-03-28T06:10:39.148Z,89.49
2018-03-28T06:11:39.148Z,89.29
2018-03-28T06:12:39.053Z,89.59
2018-03-28T06:13:39.000Z,90.70
2018-03-28T06:14:38.989Z,90.26
2018-03-28T06:15:38.955Z,90.17
2018-03-28T06:16:39.014Z,90.12
2018-03-28T06:17:38.886Z,90.41
2018-03-28T06:18:38.835Z,90.12
2018-03-28T06:19:38.822Z,88.96
2018-03-28T06:20:38.838Z,88.96
2018-03-28T06:21:38.883Z,89.49
2018-03-28T06:22:38.753Z,89.29
2018-03-28T06:23:38.724Z,89.29
2018-03-28T06:24:38.717Z,89.11
2018-03-28T06:25:38.681Z,89.88
2018-03-28T06:26:38.754Z,89.49
2018-03-28T06:27:38.613Z,90.75
2018-03-28T06:28:38.568Z,89.20
2018-03-28T06:29:38.559Z,88.71
2018-03-28T06:30:38.601Z,90.46
2018-03-28T06:31:38.589Z,90.07
2018-03-28T06:32:38.477Z,90.26
2018-03-28T06:33:38.440Z,90.70
2018-03-28T06:34:38.436Z,90.61
2018-03-28T06:35:38.401Z,90.22
2018-03-28T06:36:38.394Z,90.22
2018-03-28T06:37:38.463Z,90.41
2018-03-28T06:38:38.338Z,92.06
2018-03-28T06:39:38.325Z,92.64
2018-03-28T06:40:38.284Z,92.59
2018-03-28T06:41:38.223Z,92.49
2018-03-28T06:42:38.289Z,92.59
2018-03-28T06:43:38.289Z,92.01
2018-03-28T06:44:38.158Z,93.80
2018-03-28T06:45:38.137Z,92.40
2018-03-28T06:46:38.132Z,95.40
2018-03-28T06:47:38.096Z,96.12
2018-03-28T06:48:38.329Z,94.19
2018-03-28T06:49:38.005Z,93.13
2018-03-28T06:50:38.002Z,89.79
2018-03-28T06:51:37.971Z,89.79
2018-03-28T06:52:37.939Z,88.15
2018-03-28T06:53:38.023Z,88.87
2018-03-28T06:54:37.891Z,87.99
2018-03-28T06:55:37.894Z,87.51
2018-03-28T06:56:37.860Z,86.55
2018-03-28T06:57:37.806Z,86.45
2018-03-28T06:58:37.870Z,85.77
2018-03-28T06:59:37.737Z,85.82
2018-03-28T07:00:37.742Z,89.15
2018-03-28T07:01:37.703Z,86.93
2018-03-28T07:02:37.672Z,86.93
2018-03-28T07:03:37.754Z,86.74
2018-03-28T07:04:37.688Z,86.35
2018-03-28T07:05:37.603Z,85.87
2018-03-28T07:06:37.565Z,85.10
2018-03-28T07:07:37.534Z,85.29
2018-03-28T07:08:37.609Z,84.52
2018-03-28T07:09:37.484Z,85.29
2018-03-28T07:10:37.464Z,84.71
2018-03-28T07:11:37.415Z,86.25
2018-03-28T07:12:37.403Z,84.80
2018-03-28T07:13:37.404Z,85.19
2018-03-28T07:14:37.449Z,85.77
2018-03-28T07:15:37.334Z,85.48
2018-03-28T07:16:37.271Z,85.87
2018-03-28T07:17:37.326Z,85.97
2018-03-28T07:18:37.265Z,86.16
2018-03-28T07:19:37.287Z,87.71
2018-03-28T07:20:37.289Z,87.76
2018-03-28T07:21:37.168Z,86.89
2018-03-28T07:22:37.128Z,86.60
2018-03-28T07:23:37.098Z,88.73
2018-03-28T07:24:37.076Z,86.60
2018-03-28T07:25:37.158Z,85.44
2018-03-28T07:26:37.020Z,86.69
2018-03-28T07:27:37.006Z,87.18
2018-03-28T07:28:36.952Z,86.41
2018-03-28T07:29:36.944Z,85.19
2018-03-28T07:30:37.039Z,85.58
2018-03-28T07:31:36.902Z,83.74
2018-03-28T07:32:36.857Z,83.45
2018-03-28T07:33:36.982Z,83.94
2018-03-28T07:34:36.819Z,82.43
2018-03-28T07:35:36.887Z,82.81
2018-03-28T07:36:36.748Z,83.59
2018-03-28T07:37:36.727Z,83.11
2018-03-28T07:38:36.712Z,82.14
2018-03-28T07:39:36.672Z,82.97
2018-03-28T07:40:36.793Z,81.90
2018-03-28T07:41:36.622Z,81.90
2018-03-28T07:42:36.582Z,81.90
2018-03-28T07:43:36.545Z,82.14
2018-03-28T07:44:36.524Z,82.87
2018-03-28T07:45:36.605Z,84.08
2018-03-28T07:46:36.464Z,84.22
2018-03-28T07:47:36.427Z,85.10
2018-03-28T07:48:36.396Z,86.60
2018-03-28T07:49:36.404Z,86.69
2018-03-28T07:50:36.357Z,87.76
2018-03-28T07:51:36.476Z,88.78
2018-03-28T07:52:36.309Z,90.52
2018-03-28T07:53:36.311Z,89.94
2018-03-28T07:54:36.249Z,90.28
2018-03-28T07:55:36.221Z,91.44
2018-03-28T07:56:36.293Z,91.83
2018-03-28T07:57:36.178Z,92.41
2018-03-28T07:58:36.181Z,93.18
2018-03-28T07:59:36.129Z,93.76
2018-03-28T08:00:36.098Z,93.18
2018-03-28T08:01:36.188Z,93.13
2018-03-28T08:02:36.023Z,94.20
2018-03-28T08:03:35.998Z,94.20
2018-03-28T08:04:35.973Z,94.68
2018-03-28T08:05:35.930Z,95.35
2018-03-28T08:06:36.056Z,95.16
2018-03-28T08:07:35.899Z,96.03
2018-03-28T08:08:35.853Z,95.35
2018-03-28T08:09:35.971Z,93.32
2018-03-28T08:10:35.852Z,93.90
2018-03-28T08:11:35.915Z,92.46
2018-03-28T08:12:35.746Z,91.88
2018-03-28T08:13:35.723Z,92.46
2018-03-28T08:14:35.701Z,90.43
2018-03-28T08:15:35.692Z,90.09
2018-03-28T08:16:35.765Z,88.06
2018-03-28T08:17:35.752Z,89.51
2018-03-28T08:18:35.575Z,87.81
2018-03-28T08:19:35.600Z,87.71
2018-03-28T08:20:35.552Z,86.56
2018-03-28T08:21:35.590Z,85.78
2018-03-28T08:22:35.580Z,85.63
2018-03-28T08:23:35.465Z,87.76
2018-03-28T08:24:35.444Z,87.18
2018-03-28T08:25:35.427Z,85.05
2018-03-28T08:26:35.404Z,84.77
2018-03-28T08:27:35.351Z,84.09
2018-03-28T08:28:35.397Z,84.47
2018-03-28T08:29:35.305Z,84.47
2018-03-28T08:30:35.266Z,85.15
2018-03-28T08:31:35.228Z,85.35
2018-03-28T08:32:35.231Z,88.43
2018-03-28T08:33:35.301Z,84.77
2018-03-28T08:34:35.163Z,85.15
2018-03-28T08:35:35.126Z,86.31
2018-03-28T08:36:35.101Z,85.40
2018-03-28T08:37:35.080Z,86.21
2018-03-28T08:38:35.161Z,86.69
2018-03-28T08:39:35.016Z,85.69
2018-03-28T08:40:34.997Z,86.17
2018-03-28T08:41:34.969Z,85.73
2018-03-28T08:42:34.912Z,86.07
2018-03-28T08:43:35.000Z,86.56
2018-03-28T08:44:34.879Z,85.53
2018-03-28T08:45:34.853Z,85.01
2018-03-28T08:46:34.808Z,85.49
2018-03-28T08:47:34.783Z,86.31
2018-03-28T08:48:34.857Z,86.99
2018-03-28T08:49:34.759Z,87.27
2018-03-28T08:50:34.754Z,86.56
2018-03-28T08:51:34.741Z,86.65
2018-03-28T08:52:34.635Z,87.43
2018-03-28T08:53:34.794Z,86.85
2018-03-28T08:54:34.661Z,86.85
2018-03-28T08:55:34.581Z,86.17
2018-03-28T08:56:34.612Z,86.27
2018-03-28T08:57:34.594Z,86.27
2018-03-28T08:58:34.513Z,85.78
2018-03-28T08:59:34.574Z,85.49
2018-03-28T09:00:34.473Z,85.73
2018-03-28T09:01:34.396Z,85.73
2018-03-28T09:02:34.429Z,85.83
2018-03-28T09:03:34.353Z,85.63
2018-03-28T09:04:34.319Z,85.83
2018-03-28T09:05:34.424Z,86.69
2018-03-28T09:06:34.259Z,85.73
2018-03-28T09:07:34.245Z,86.89
2018-03-28T09:08:34.226Z,85.73
2018-03-28T09:09:34.192Z,88.82
2018-03-28T09:10:34.258Z,86.41
2018-03-28T09:11:34.205Z,87.27
2018-03-28T09:12:34.110Z,86.41
2018-03-28T09:13:34.088Z,86.75
2018-03-28T09:14:34.063Z,87.18
2018-03-28T09:15:34.187Z,86.85
2018-03-28T09:16:34.019Z,87.62
2018-03-28T09:17:33.952Z,88.97
2018-03-28T09:18:33.939Z,88.39
2018-03-28T09:19:33.925Z,88.87
2018-03-28T09:20:34.018Z,89.07
2018-03-28T09:21:33.843Z,88.78
2018-03-28T09:22:33.868Z,89.26
2018-03-28T09:23:33.794Z,90.13
2018-03-28T09:24:33.806Z,89.17
2018-03-28T09:25:33.858Z,88.39
2018-03-28T09:26:33.748Z,88.97
2018-03-28T09:27:33.673Z,88.87
2018-03-28T09:28:33.707Z,88.78
2018-03-28T09:29:33.677Z,89.17
2018-03-28T09:30:33.669Z,88.68
2018-03-28T09:31:33.687Z,88.78
2018-03-28T09:32:33.550Z,88.87
2018-03-28T09:33:33.547Z,88.97
2018-03-28T09:34:33.527Z,88.97
2018-03-28T09:35:33.455Z,88.20
2018-03-28T09:36:33.437Z,89.17
2018-03-28T09:37:33.533Z,88.49
2018-03-28T09:38:33.385Z,88.34
2018-03-28T09:39:33.374Z,88.29
2018-03-28T09:40:33.352Z,88.87
2018-03-28T09:41:33.306Z,88.29
2018-03-28T09:42:33.299Z,88.59
2018-03-28T09:43:33.353Z,88.59
2018-03-28T09:44:33.255Z,88.78
2018-03-28T09:45:33.195Z,88.87
2018-03-28T09:46:33.181Z,89.94
2018-03-28T09:47:33.128Z,89.45
2018-03-28T09:48:33.223Z,90.03
2018-03-28T09:49:33.123Z,89.07
2018-03-28T09:50:33.083Z,88.20
2018-03-28T09:51:33.059Z,88.20
2018-03-28T09:52:32.990Z,88.78
2018-03-28T09:53:33.080Z,88.20
2018-03-28T09:54:32.929Z,89.94
2018-03-28T09:55:32.944Z,88.78
2018-03-28T09:56:32.879Z,90.81
2018-03-28T09:57:32.875Z,89.17
2018-03-28T09:58:32.975Z,89.26
2018-03-28T09:59:32.810Z,89.26
2018-03-28T10:00:32.818Z,89.26
2018-03-28T10:01:32.761Z,89.36
2018-03-28T10:02:32.712Z,88.29
2018-03-28T10:03:32.742Z,89.17
2018-03-28T10:04:32.815Z,88.97
2018-03-28T10:05:32.649Z,88.01
2018-03-28T10:06:32.637Z,88.87
2018-03-28T10:07:32.593Z,88.20
2018-03-28T10:08:32.570Z,86.79
2018-03-28T10:09:32.649Z,86.25
2018-03-28T10:10:32.499Z,85.58
2018-03-28T10:11:32.514Z,86.25
2018-03-28T10:12:32.443Z,86.74
2018-03-28T10:13:32.417Z,86.60
2018-03-28T10:14:32.384Z,85.58
2018-03-28T10:15:32.493Z,85.48
2018-03-28T10:16:32.348Z,85.87
2018-03-28T10:17:32.310Z,85.10
2018-03-28T10:18:32.316Z,86.35
2018-03-28T10:19:32.302Z,86.55
2018-03-28T10:20:32.265Z,85.39
2018-03-28T10:21:32.328Z,85.10
2018-03-28T10:22:32.216Z,84.90
2018-03-28T10:23:32.170Z,85.39
2018-03-28T10:24:32.174Z,85.19
2018-03-28T10:25:32.077Z,85.19
2018-03-28T10:26:32.157Z,85.00
2018-03-28T10:27:32.046Z,85.10
2018-03-28T10:28:32.008Z,84.90
2018-03-28T10:29:32.008Z,84.61
2018-03-28T10:30:31.964Z,84.71
2018-03-28T10:31:32.045Z,85.19
2018-03-28T10:32:31.925Z,85.10
2018-03-28T10:33:31.893Z,85.29
2018-03-28T10:34:31.883Z,85.10
2018-03-28T10:35:31.883Z,84.90
2018-03-28T10:36:31.863Z,85.00
2018-03-28T10:37:31.879Z,85.87
2018-03-28T10:38:31.721Z,85.48
2018-03-28T10:39:31.709Z,86.35
2018-03-28T10:40:31.746Z,85.58
2018-03-28T10:41:31.739Z,85.58
2018-03-28T10:42:31.742Z,86.65
2018-03-28T10:43:31.592Z,86.60
2018-03-28T10:44:31.601Z,86.55
2018-03-28T10:45:31.568Z,87.08
2018-03-28T10:46:31.576Z,87.47
2018-03-28T10:47:31.630Z,87.37
2018-03-28T10:48:31.479Z,87.47
2018-03-28T10:49:31.442Z,87.66
2018-03-28T10:50:31.444Z,87.27
2018-03-28T10:51:31.419Z,88.92
2018-03-28T10:52:31.352Z,87.23
2018-03-28T10:53:31.456Z,87.27
2018-03-28T10:54:31.286Z,86.79
2018-03-28T10:55:31.271Z,87.08
2018-03-28T10:56:31.237Z,86.51
2018-03-28T10:57:31.223Z,85.48
2018-03-28T10:58:31.334Z,84.61
2018-03-28T10:59:31.171Z,85.77
2018-03-28T11:00:31.130Z,85.19
2018-03-28T11:01:31.119Z,84.03
2018-03-28T11:02:31.102Z,85.29
2018-03-28T11:03:31.162Z,85.68
2018-03-28T11:04:31.090Z,86.35
2018-03-28T11:05:30.991Z,85.10
2018-03-28T11:06:30.960Z,86.25
2018-03-28T11:07:30.955Z,84.90
2018-03-28T11:08:30.974Z,84.80
2018-03-28T11:09:31.000Z,85.00
2018-03-28T11:10:30.864Z,84.71
2018-03-28T11:11:30.828Z,85.68
2018-03-28T11:12:30.841Z,85.00
2018-03-28T11:13:30.792Z,84.80
2018-03-28T11:14:30.800Z,85.10
2018-03-28T11:15:30.863Z,84.52
2018-03-28T11:16:30.704Z,85.19
2018-03-28T11:17:30.697Z,85.19
2018-03-28T11:18:30.650Z,86.35
2018-03-28T11:19:30.638Z,85.53
2018-03-28T11:20:30.731Z,85.77
2018-03-28T11:21:30.561Z,85.29
2018-03-28T11:22:30.530Z,86.45
2018-03-28T11:23:30.521Z,84.90
2018-03-28T11:24:30.461Z,85.10
2018-03-28T11:25:30.454Z,85.48
2018-03-28T11:26:30.524Z,84.90
2018-03-28T11:27:30.389Z,85.68
2018-03-28T11:28:30.411Z,84.90
2018-03-28T11:29:30.325Z,85.19
2018-03-28T11:30:30.330Z,85.10
2018-03-28T11:31:30.291Z,85.10
2018-03-28T11:32:30.390Z,85.39
2018-03-28T11:33:30.218Z,85.10
2018-03-28T11:34:30.201Z,85.00
2018-03-28T11:35:30.156Z,85.14
2018-03-28T11:36:30.215Z,84.80
2018-03-28T11:37:30.259Z,85.29
2018-03-28T11:38:30.130Z,84.46
2018-03-28T11:39:30.088Z,84.36
2018-03-28T11:40:30.061Z,84.66
2018-03-28T11:41:30.051Z,85.52
2018-03-28T11:42:30.073Z,84.94
2018-03-28T11:43:30.064Z,85.24
2018-03-28T11:44:29.964Z,85.04
2018-03-28T11:45:29.915Z,85.33
2018-03-28T11:46:29.943Z,84.90
2018-03-28T11:47:29.855Z,85.14
2018-03-28T11:48:29.873Z,85.91
2018-03-28T11:49:29.915Z,85.68
2018-03-28T11:50:29.787Z,85.48
2018-03-28T11:51:29.855Z,85.19
2018-03-28T11:52:29.729Z,85.58
2018-03-28T11:53:29.722Z,85.39
2018-03-28T11:54:29.840Z,85.82
2018-03-28T11:55:29.690Z,84.71
2018-03-28T11:56:29.632Z,84.75
2018-03-28T11:57:29.692Z,84.84
2018-03-28T11:58:29.548Z,85.14
2018-03-28T11:59:29.626Z,85.24
2018-03-28T12:00:29.519Z,84.27
2018-03-28T12:01:29.468Z,84.75
2018-03-28T12:02:29.441Z,85.04
2018-03-28T12:03:29.418Z,85.91
2018-03-28T12:04:29.374Z,84.56
2018-03-28T12:05:29.449Z,83.78
2018-03-28T12:06:29.332Z,84.27
2018-03-28T12:07:29.334Z,84.50
2018-03-28T12:08:29.350Z,82.08
2018-03-28T12:09:29.293Z,82.22
2018-03-28T12:10:29.350Z,82.70
2018-03-28T12:11:29.242Z,83.53
2018-03-28T12:12:29.181Z,83.48
2018-03-28T12:13:29.124Z,82.12
2018-03-28T12:14:29.143Z,81.77
2018-03-28T12:15:29.219Z,79.58
2018-03-28T12:16:29.055Z,79.97
2018-03-28T12:17:29.064Z,79.20
2018-03-28T12:18:29.008Z,79.10
2018-03-28T12:19:28.992Z,79.68
2018-03-28T12:20:28.986Z,79.64
2018-03-28T12:21:29.026Z,79.39
2018-03-28T12:22:28.959Z,79.06
2018-03-28T12:23:28.884Z,79.39
2018-03-28T12:24:28.882Z,79.30
2018-03-28T12:25:28.824Z,79.10
2018-03-28T12:26:28.921Z,78.23
2018-03-28T12:27:28.775Z,79.30
2018-03-28T12:28:28.853Z,79.97
2018-03-28T12:29:28.735Z,79.30
2018-03-28T12:30:28.711Z,79.53
2018-03-28T12:31:28.787Z,77.24
2018-03-28T12:32:28.620Z,75.47
2018-03-28T12:33:28.599Z,73.02
2018-03-28T12:34:28.580Z,70.52
2018-03-28T12:35:28.551Z,69.13
2018-03-28T12:36:28.624Z,68.09
2018-03-28T12:37:28.524Z,66.66
2018-03-28T12:38:28.508Z,66.86
2018-03-28T12:39:28.447Z,66.08
2018-03-28T12:40:28.429Z,65.30
2018-03-28T12:41:28.382Z,64.87
2018-03-28T12:42:28.481Z,63.80
2018-03-28T12:43:28.338Z,63.34
2018-03-28T12:44:28.349Z,62.60
2018-03-28T12:45:28.338Z,62.70
2018-03-28T12:46:28.294Z,62.85
2018-03-28T12:47:28.356Z,63.24
2018-03-28T12:48:28.244Z,62.82
2018-03-28T12:49:28.236Z,65.07
2018-03-28T12:50:28.237Z,64.75
2018-03-28T12:51:28.280Z,65.78
2018-03-28T12:52:28.371Z,66.14